createdAt,value
2022-11-21T00:02:52.613Z,99.90
2022-11-21T00:05:55.888Z,99.90
2022-11-21T00:08:59.151Z,99.90
2022-11-21T00:12:04.011Z,99.90
2022-11-21T00:15:08.509Z,99.90
2022-11-21T00:18:12.937Z,99.90
2022-11-21T00:21:18.148Z,99.90
2022-11-21T00:24:21.511Z,99.90
2022-11-21T00:27:26.187Z,99.90
2022-11-21T00:30:29.504Z,99.90
2022-11-21T00:33:33.112Z,99.90
2022-11-21T00:36:36.884Z,99.90
2022-11-21T00:39:40.278Z,99.90
2022-11-21T00:42:45.116Z,99.90
2022-11-21T00:45:48.466Z,99.90
2022-11-21T00:48:51.799Z,99.90
2022-11-21T00:51:55.319Z,99.90
2022-11-21T00:54:58.632Z,99.90
2022-11-21T00:58:03.382Z,99.90
2022-11-21T01:01:08.037Z,99.90
2022-11-21T01:04:11.405Z,99.90
2022-11-21T01:07:15.229Z,99.90
2022-11-21T01:10:18.702Z,99.90
2022-11-21T01:13:23.497Z,99.90
2022-11-21T01:16:29.107Z,99.90
2022-11-21T01:19:32.429Z,99.90
2022-11-21T01:22:35.727Z,99.90
2022-11-21T01:25:39.126Z,99.90
2022-11-21T01:28:44.173Z,99.90
2022-11-21T01:31:47.390Z,99.90
2022-11-21T01:34:50.586Z,99.90
2022-11-21T01:37:53.805Z,99.90
2022-11-21T01:40:57.094Z,99.90
2022-11-21T01:44:02.170Z,99.90
2022-11-21T01:47:05.396Z,99.90
2022-11-21T01:50:12.967Z,99.90
2022-11-21T01:53:16.457Z,99.90
2022-11-21T01:56:19.956Z,99.90
2022-11-21T01:59:28.625Z,99.90
2022-11-21T02:02:34.930Z,99.90
2022-11-21T02:05:40.173Z,99.90
2022-11-21T02:08:45.036Z,99.90
2022-11-21T02:11:52.741Z,99.90
2022-11-21T02:14:58.661Z,99.90
2022-11-21T02:18:01.858Z,99.90
2022-11-21T02:21:12.914Z,99.90
2022-11-21T02:24:22.962Z,99.90
2022-11-21T02:27:27.647Z,99.90
2022-11-21T02:30:32.715Z,99.90
2022-11-21T02:33:36.002Z,99.90
2022-11-21T02:36:43.112Z,99.90
2022-11-21T02:39:48.588Z,99.90
2022-11-21T02:43:01.176Z,99.90
2022-11-21T02:46:04.452Z,99.90
2022-11-21T02:49:10.335Z,99.90
2022-11-21T02:52:13.565Z,99.90
2022-11-21T02:55:16.860Z,99.90
2022-11-21T02:58:21.520Z,99.90
2022-11-21T03:01:25.002Z,99.90
2022-11-21T03:04:29.234Z,99.90
2022-11-21T03:07:32.857Z,99.90
2022-11-21T03:10:36.128Z,99.90
2022-11-21T03:13:40.731Z,99.90
2022-11-21T03:16:43.913Z,99.90
2022-11-21T03:19:47.328Z,99.90
2022-11-21T03:22:50.743Z,99.90
2022-11-21T03:25:53.943Z,99.90
2022-11-21T03:28:58.500Z,99.90
2022-11-21T03:32:01.714Z,99.90
2022-11-21T03:35:05.363Z,99.90
2022-11-21T03:38:08.633Z,99.90
2022-11-21T03:41:25.701Z,99.90
2022-11-21T03:44:31.267Z,99.90
2022-11-21T03:47:34.581Z,99.90
2022-11-21T03:50:37.815Z,99.90
2022-11-21T03:53:41.094Z,99.90
2022-11-21T03:56:44.316Z,99.90
2022-11-21T03:59:48.898Z,99.90
2022-11-21T04:02:55.763Z,99.90
2022-11-21T04:05:59.521Z,99.90
2022-11-21T04:09:05.958Z,99.90
2022-11-21T04:12:09.748Z,99.90
2022-11-21T04:15:14.426Z,99.90
2022-11-21T04:18:19.025Z,99.90
2022-11-21T04:21:23.063Z,99.90
2022-11-21T04:24:27.314Z,99.90
2022-11-21T04:27:31.452Z,99.90
2022-11-21T04:30:36.866Z,99.90
2022-11-21T04:33:40.832Z,99.90
2022-11-21T04:36:48.123Z,99.90
2022-11-21T04:39:51.356Z,99.90
2022-11-21T04:42:55.175Z,99.90
2022-11-21T04:46:02.186Z,99.90
2022-11-21T04:49:05.427Z,99.90
2022-11-21T04:52:09.006Z,99.90
2022-11-21T04:55:12.278Z,99.90
2022-11-21T04:58:15.629Z,99.90
2022-11-21T05:01:20.583Z,99.90
2022-11-21T05:04:23.828Z,99.90
2022-11-21T05:07:27.299Z,99.90
2022-11-21T05:10:30.737Z,99.90
2022-11-21T05:13:32.854Z,99.90
2022-11-21T05:16:37.429Z,99.90
2022-11-21T05:19:40.796Z,99.90
2022-11-21T05:22:45.819Z,99.90
2022-11-21T05:25:49.019Z,99.90
2022-11-21T05:28:52.367Z,99.90
2022-11-21T05:31:56.969Z,99.90
2022-11-21T05:35:00.248Z,99.90
2022-11-21T05:38:03.868Z,99.90
2022-11-21T05:41:07.134Z,99.90
2022-11-21T05:44:10.324Z,99.90
2022-11-21T05:47:14.947Z,99.90
2022-11-21T05:50:18.636Z,99.90
2022-11-21T05:53:22.075Z,99.90
2022-11-21T05:56:25.369Z,99.90
2022-11-21T05:59:28.619Z,99.90
2022-11-21T06:02:54.241Z,99.90
2022-11-21T06:06:02.892Z,99.90
2022-11-21T06:09:06.526Z,99.90
2022-11-21T06:12:09.707Z,99.90
2022-11-21T06:15:12.947Z,99.90
2022-11-21T06:18:17.657Z,99.90
2022-11-21T06:21:23.307Z,99.90
2022-11-21T06:24:26.587Z,99.90
2022-11-21T06:27:30.455Z,99.90
2022-11-21T06:30:34.257Z,99.90
2022-11-21T06:33:40.063Z,99.90
2022-11-21T06:36:44.789Z,99.90
2022-11-21T06:39:48.744Z,99.90
2022-11-21T06:42:51.950Z,99.90
2022-11-21T06:45:58.906Z,99.90
2022-11-21T06:49:03.973Z,99.90
2022-11-21T06:52:07.136Z,99.90
2022-11-21T06:55:11.634Z,99.90
2022-11-21T06:58:14.843Z,99.90
2022-11-21T07:01:18.216Z,99.90
2022-11-21T07:04:22.855Z,99.90
2022-11-21T07:07:26.295Z,99.90
2022-11-21T07:10:30.604Z,99.90
2022-11-21T07:13:34.302Z,99.90
2022-11-21T07:16:37.749Z,99.90
2022-11-21T07:19:43.073Z,99.90
2022-11-21T07:22:46.206Z,99.90
2022-11-21T07:25:49.533Z,99.90
2022-11-21T07:28:52.886Z,99.90
2022-11-21T07:31:56.420Z,99.90
2022-11-21T07:35:00.966Z,99.90
2022-11-21T07:38:05.470Z,99.90
2022-11-21T07:41:08.769Z,99.90
2022-11-21T07:44:12.064Z,99.90
2022-11-21T07:47:15.375Z,99.90
2022-11-21T07:50:20.047Z,99.90
2022-11-21T07:53:24.050Z,99.90
2022-11-21T07:56:27.528Z,99.90
2022-11-21T07:59:30.958Z,99.90
2022-11-21T08:02:34.325Z,99.90
2022-11-21T08:05:39.712Z,99.90
2022-11-21T08:08:43.372Z,99.90
2022-11-21T08:11:46.560Z,99.90
2022-11-21T08:14:49.968Z,99.90
2022-11-21T08:17:53.209Z,99.90
2022-11-21T08:20:57.982Z,99.90
2022-11-21T08:24:02.990Z,99.90
2022-11-21T08:27:06.355Z,99.90
2022-11-21T08:30:11.591Z,99.90
2022-11-21T08:33:14.836Z,99.90
2022-11-21T08:36:19.486Z,99.90
2022-11-21T08:39:22.785Z,99.90
2022-11-21T08:42:26.192Z,99.90
2022-11-21T08:45:29.930Z,99.90
2022-11-21T08:48:33.244Z,99.90
2022-11-21T08:51:37.902Z,99.90
2022-11-21T08:54:41.619Z,99.90
2022-11-21T08:57:44.942Z,99.90
2022-11-21T09:00:48.403Z,99.90
2022-11-21T09:03:51.678Z,99.90
2022-11-21T09:06:56.358Z,99.90
2022-11-21T09:09:59.572Z,99.90
2022-11-21T09:13:02.841Z,99.90
2022-11-21T09:16:23.716Z,99.90
2022-11-21T09:19:28.783Z,99.90
2022-11-21T09:22:33.757Z,99.90
2022-11-21T09:25:37.051Z,99.90
2022-11-21T09:28:41.615Z,99.90
2022-11-21T09:31:46.157Z,99.90
2022-11-21T09:34:49.556Z,99.90
2022-11-21T09:37:54.532Z,99.90
2022-11-21T09:41:32.457Z,99.90
2022-11-21T09:44:59.690Z,99.90
2022-11-21T09:48:09.727Z,99.90
2022-11-21T09:51:18.523Z,99.90
2022-11-21T09:54:28.229Z,99.90
2022-11-21T09:57:35.614Z,99.90
2022-11-21T10:00:39.020Z,99.90
2022-11-21T10:03:45.212Z,99.90
2022-11-21T10:06:56.937Z,99.90
2022-11-21T10:10:27.572Z,99.90
2022-11-21T10:13:44.144Z,99.90
2022-11-21T10:16:55.470Z,99.90
2022-11-21T10:20:23.576Z,99.90
2022-11-21T10:23:40.350Z,99.90
2022-11-21T10:26:52.990Z,99.90
2022-11-21T10:30:01.247Z,99.90
2022-11-21T10:33:06.967Z,99.90
2022-11-21T10:36:17.586Z,99.90
2022-11-21T10:39:25.886Z,97.40
2022-11-21T10:42:37.003Z,95.60
2022-11-21T10:45:40.910Z,68.60
2022-11-21T10:48:44.201Z,53.80
2022-11-21T10:51:52.257Z,37.80
2022-11-21T10:55:12.012Z,30.00
2022-11-21T10:58:20.281Z,31.50
2022-11-21T11:01:29.879Z,29.50
2022-11-21T11:04:42.874Z,36.70
2022-11-21T11:08:02.394Z,18.40
2022-11-21T11:11:08.744Z,1.30
2022-11-21T11:14:16.989Z,1.00
2022-11-21T11:17:29.469Z,1.00
2022-11-21T11:20:37.812Z,1.00
2022-11-21T11:23:41.094Z,1.00
2022-11-21T11:26:53.533Z,1.00
2022-11-21T11:29:58.293Z,1.00
2022-11-21T11:33:01.607Z,1.00
2022-11-21T11:36:17.088Z,16.10
2022-11-21T11:39:32.193Z,8.80
2022-11-21T11:43:07.234Z,1.00
2022-11-21T11:46:49.484Z,3.10
2022-11-21T11:50:15.480Z,1.00
2022-11-21T11:53:21.410Z,1.00
2022-11-21T11:56:28.647Z,15.10
2022-11-21T11:59:38.457Z,21.40
2022-11-21T12:02:52.892Z,24.70
2022-11-21T12:06:08.839Z,36.90
2022-11-21T12:09:22.191Z,39.80
2022-11-21T12:12:34.946Z,42.40
2022-11-21T12:15:51.233Z,46.00
2022-11-21T12:18:59.866Z,39.70
2022-11-21T12:22:06.426Z,41.90
2022-11-21T12:25:12.972Z,53.50
2022-11-21T12:28:31.852Z,52.50
2022-11-21T12:31:44.993Z,49.00
2022-11-21T12:35:19.380Z,59.30
2022-11-21T12:38:39.444Z,69.00
2022-11-21T12:42:11.748Z,69.60
2022-11-21T12:45:28.909Z,69.00
2022-11-21T12:49:07.099Z,80.20
2022-11-21T12:52:38.310Z,90.30
2022-11-21T12:55:42.622Z,94.10
2022-11-21T12:58:52.904Z,98.90
2022-11-21T13:02:04.044Z,99.10
2022-11-21T13:05:13.771Z,99.70
2022-11-21T13:08:24.627Z,99.90
2022-11-21T13:11:52.990Z,99.60
2022-11-21T13:15:05.592Z,99.90
2022-11-21T13:18:21.222Z,99.90
2022-11-21T13:21:42.794Z,99.90
2022-11-21T13:25:01.871Z,99.90
2022-11-21T13:28:38.234Z,99.90
2022-11-21T13:31:42.148Z,99.90
2022-11-21T13:34:45.425Z,99.90
2022-11-21T13:38:02.903Z,99.90
2022-11-21T13:41:26.356Z,99.90
2022-11-21T13:44:40.610Z,99.90
2022-11-21T13:48:30.548Z,99.90
2022-11-21T13:51:53.671Z,99.90
2022-11-21T13:55:31.646Z,99.90
2022-11-21T13:58:55.180Z,99.90
2022-11-21T14:02:34.715Z,99.90
2022-11-21T14:05:59.721Z,99.90
2022-11-21T14:09:25.622Z,99.90
2022-11-21T14:12:35.198Z,99.90
2022-11-21T14:15:48.801Z,99.90
2022-11-21T14:18:52.770Z,99.90
2022-11-21T14:21:56.545Z,99.90
2022-11-21T14:25:01.161Z,99.90
2022-11-21T14:28:08.318Z,99.90
2022-11-21T14:31:14.421Z,99.90
2022-11-21T14:34:26.789Z,99.90
2022-11-21T14:37:30.468Z,99.90
2022-11-21T14:40:33.954Z,99.90
2022-11-21T14:43:38.062Z,99.90
2022-11-21T14:46:43.793Z,99.90
2022-11-21T14:49:51.772Z,99.90
2022-11-21T14:52:58.235Z,99.90
2022-11-21T14:56:02.705Z,99.90
2022-11-21T14:59:19.280Z,99.90
2022-11-21T15:02:26.250Z,99.90
2022-11-21T15:06:01.982Z,99.90
2022-11-21T15:12:29.123Z,99.90
2022-11-21T15:15:35.897Z,99.90
2022-11-21T15:18:42.775Z,99.90
2022-11-21T15:21:47.112Z,99.90
2022-11-21T15:24:50.816Z,99.90
2022-11-21T15:28:10.046Z,99.90
2022-11-21T15:31:18.300Z,99.90
2022-11-21T15:34:36.727Z,99.90
2022-11-21T15:37:50.159Z,99.90
2022-11-21T15:41:10.568Z,99.90
2022-11-21T15:44:22.932Z,99.90
2022-11-21T15:47:26.774Z,99.90
2022-11-21T15:50:31.706Z,99.90
2022-11-21T15:53:35.584Z,99.90
2022-11-21T15:56:40.340Z,99.90
2022-11-21T15:59:43.676Z,99.90
2022-11-21T16:02:47.454Z,99.90
2022-11-21T16:05:52.448Z,99.90
2022-11-21T16:08:55.931Z,99.90
2022-11-21T16:11:59.850Z,99.90
2022-11-21T16:15:06.157Z,99.90
2022-11-21T16:18:10.222Z,99.90
2022-11-21T16:21:15.325Z,99.90
2022-11-21T16:24:19.403Z,99.90
2022-11-21T16:27:22.961Z,99.90
2022-11-21T16:30:26.457Z,99.90
2022-11-21T16:33:30.687Z,99.90
2022-11-21T16:36:35.389Z,99.90
2022-11-21T16:39:40.577Z,99.90
2022-11-21T16:42:44.322Z,99.90
2022-11-21T16:45:48.100Z,99.90
2022-11-21T16:49:00.544Z,99.90
2022-11-21T16:52:07.323Z,99.90
2022-11-21T16:55:11.088Z,99.90
2022-11-21T16:58:14.783Z,99.90
2022-11-21T17:01:20.592Z,99.90
2022-11-21T17:04:24.046Z,99.90
2022-11-21T17:07:28.794Z,99.90
2022-11-21T17:10:34.252Z,99.90
2022-11-21T17:13:37.856Z,99.90
2022-11-21T17:16:41.924Z,99.90
2022-11-21T17:19:45.512Z,99.90
2022-11-21T17:22:50.181Z,99.90
2022-11-21T17:25:53.461Z,99.90
2022-11-21T17:28:58.309Z,99.90
2022-11-21T17:32:01.691Z,99.90
2022-11-21T17:35:05.557Z,99.90
2022-11-21T17:38:10.456Z,99.90
2022-11-21T17:41:14.918Z,99.90
2022-11-21T17:44:18.373Z,99.90
2022-11-21T17:47:22.183Z,99.90
2022-11-21T17:50:25.860Z,99.90
2022-11-21T17:53:31.923Z,99.90
2022-11-21T17:56:42.347Z,99.90
2022-11-21T17:59:49.160Z,99.90
2022-11-21T18:02:52.489Z,99.90
2022-11-21T18:06:02.147Z,99.90
2022-11-21T18:09:08.639Z,99.90
2022-11-21T18:12:12.286Z,99.90
2022-11-21T18:15:15.685Z,99.90
2022-11-21T18:18:19.121Z,99.90
2022-11-21T18:21:25.071Z,99.90
2022-11-21T18:24:30.899Z,99.90
2022-11-21T18:27:34.514Z,99.90
2022-11-21T18:30:38.590Z,99.90
2022-11-21T18:33:43.255Z,99.90
2022-11-21T18:36:47.751Z,99.90
2022-11-21T18:39:52.596Z,99.90
2022-11-21T18:42:56.018Z,99.90
2022-11-21T18:46:04.034Z,99.90
2022-11-21T18:49:08.491Z,99.90
2022-11-21T18:52:12.334Z,99.90
2022-11-21T18:55:17.261Z,99.90
2022-11-21T18:58:20.735Z,99.90
2022-11-21T19:01:25.810Z,99.90
2022-11-21T19:04:29.232Z,99.90
2022-11-21T19:07:32.588Z,99.90
2022-11-21T19:10:43.653Z,99.90
2022-11-21T19:13:47.848Z,99.90
2022-11-21T19:16:51.694Z,99.90
2022-11-21T19:19:58.850Z,99.90
2022-11-21T19:23:02.466Z,99.90
2022-11-21T19:26:08.881Z,99.90
2022-11-21T19:29:13.553Z,99.90
2022-11-21T19:32:16.960Z,99.90
2022-11-21T19:35:20.609Z,99.90
2022-11-21T19:38:24.009Z,99.90
2022-11-21T19:41:30.660Z,99.90
2022-11-21T19:44:34.869Z,99.90
2022-11-21T19:47:38.159Z,99.90
2022-11-21T19:50:47.728Z,99.90
2022-11-21T19:53:53.351Z,99.90
2022-11-21T19:56:58.127Z,99.90
2022-11-21T20:00:01.419Z,99.90
2022-11-21T20:03:13.627Z,99.90
2022-11-21T20:06:18.605Z,99.90
2022-11-21T20:09:23.007Z,99.90
2022-11-21T20:12:28.453Z,99.90
2022-11-21T20:15:31.801Z,99.90
2022-11-21T20:18:35.691Z,99.90
2022-11-21T20:21:40.154Z,99.90
2022-11-21T20:24:50.284Z,99.90
2022-11-21T20:27:56.326Z,99.90
2022-11-21T20:31:08.290Z,99.90
2022-11-21T20:34:13.597Z,99.90
2022-11-21T20:37:16.986Z,99.90
2022-11-21T20:40:20.304Z,99.90
2022-11-21T20:43:52.626Z,99.90
2022-11-21T20:46:56.154Z,99.90
2022-11-21T20:49:59.544Z,99.90
2022-11-21T20:56:27.627Z,99.90
2022-11-21T20:59:32.893Z,99.90
2022-11-21T21:02:36.434Z,99.90
2022-11-21T21:05:40.225Z,99.90
2022-11-21T21:08:44.851Z,99.90
2022-11-21T21:11:53.005Z,99.90
2022-11-21T21:14:57.833Z,99.90
2022-11-21T21:18:01.269Z,99.90
2022-11-21T21:21:16.970Z,99.90
2022-11-21T21:24:20.844Z,99.90
2022-11-21T21:27:24.414Z,99.90
2022-11-21T21:30:29.147Z,99.90
2022-11-21T21:33:32.426Z,99.90
2022-11-21T21:36:36.234Z,99.90
2022-11-21T21:39:39.973Z,99.90
2022-11-21T21:42:43.307Z,99.90
2022-11-21T21:45:47.942Z,99.90
2022-11-21T21:48:54.637Z,99.90
2022-11-21T21:51:57.911Z,99.90
2022-11-21T21:55:01.115Z,99.90
2022-11-21T21:58:04.468Z,99.90
2022-11-21T22:01:12.190Z,99.90
2022-11-21T22:04:15.775Z,99.90
2022-11-21T22:07:18.974Z,99.90
2022-11-21T22:10:22.149Z,99.90
2022-11-21T22:13:25.387Z,99.90
2022-11-21T22:16:31.174Z,99.90
2022-11-21T22:19:34.416Z,99.90
2022-11-21T22:22:37.876Z,99.90
2022-11-21T22:25:41.392Z,99.90
2022-11-21T22:28:45.329Z,99.90
2022-11-21T22:31:50.896Z,99.90
2022-11-21T22:34:54.301Z,99.90
2022-11-21T22:37:57.864Z,99.90
2022-11-21T22:41:05.016Z,99.90
2022-11-21T22:44:10.192Z,99.90
2022-11-21T22:47:15.116Z,99.90
2022-11-21T22:50:18.383Z,99.90
2022-11-21T22:53:21.700Z,99.90
2022-11-21T22:56:25.858Z,99.90
2022-11-21T22:59:29.065Z,99.90
2022-11-21T23:02:35.434Z,99.90
2022-11-21T23:05:38.662Z,99.90
2022-11-21T23:08:42.510Z,99.90
2022-11-21T23:11:45.892Z,99.90
2022-11-21T23:14:49.167Z,99.90
2022-11-21T23:17:54.050Z,99.90
2022-11-21T23:20:57.652Z,99.90
2022-11-21T23:24:00.880Z,99.90
2022-11-21T23:27:04.374Z,99.90
2022-11-21T23:30:09.340Z,99.90
2022-11-21T23:33:13.973Z,99.90
2022-11-21T23:36:17.308Z,99.90
2022-11-21T23:39:20.630Z,99.90
2022-11-21T23:42:23.844Z,99.90
2022-11-21T23:45:27.062Z,99.90
2022-11-21T23:48:31.655Z,99.90
2022-11-21T23:51:35.073Z,99.90
2022-11-21T23:54:38.319Z,99.90
2022-11-21T23:57:41.536Z,99.90
